South Padre Island, TX

8:36 PM CST on February 27, 2015 (GMT -0600)
Port Isabel | Change Station
CLOSE
Current Station
Airport
Location: Port Isabel,
Elevation: 16 ft
Nearby Weather Stations

Elev 16 ft 26.16 °N, 97.34 °W | Updated 43 minutes ago

Mostly Cloudy
Mostly Cloudy
61 °F
Feels Like 61 °F
N
6
Wind Variable Wind from ENE

Today
High -- | Low -- °F
--% Chance of Precip.
Yesterday
High -- | Low -- °F
Precip. -- in
6:54 AM 6:28 PM
Waxing Gibbous, 73% visible
Pressure 30.15 in
Visibility 6.0 miles
Clouds Few 2800 ft
Overcast 3900 ft
Dew Point 58 °F
Humidity 90%
Rainfall 0.00 in
Snow Depth Not available.
UV 0 out of 12
Pollen 8.50 out of 12
Air Quality Not available.
Flu Activity Not available.
METAR KPIL 280153Z AUTO 07005KT 6SM BR FEW028 OVC039 16/14 A3015 RMK AO2 RAE21 SLP209 P0000 T01610144

More Conditions Fewer Conditions

Pressure 30.15 in
Visibility 6.0 miles
Clouds Few 2800 ft
Overcast 3900 ft
Dew Point 58 °F
Humidity 90%
Rainfall 0.00 in
Snow Depth Not available.
UV 0 out of 12
Pollen 8.50 out of 12
Air Quality Not available.
Flu Activity Not available.
METAR KPIL 280153Z AUTO 07005KT 6SM BR FEW028 OVC039 16/14 A3015 RMK AO2 RAE21 SLP209 P0000 T01610144

More Conditions Fewer Conditions

Nowcast | as of 7:08 PM CST on February 27, 2015

Through 9 PM...patchy light showers will move northwest over the eastern portions of Cameron...Willacy...Kenedy and southern Hidalgo counties at around 20 mph. Rainfall totals with these showers will only be very light over the next couple of hours.

×

10-Day Weather Forecast

Almanac

Astronomy

Feb. 27, 2015 Rise Set
Actual Time
Civil Twilight
Nautical Twilight
Astronomical Twilight
Moon
Length of Visible Light
Length of Day
Tomorrow will be .
, % of the Moon is Illuminated

Today's Extremes

State Highs State Lows

Community

WunderPhotos

Upload Photos

1,800,938 photos uploaded!

WunderBlogs® & News

Nearby

Air Quality

  Air Quality AQ Index Pollutant
Not available.

Snow Depth

Station Depth Elevation

Earthquake Activity

City Distance Mag. Time & Date
Minimum magnitude displayed is 2.5.

Coastal Water Temperatures

Place Temperature

Nearby Weather Stations